createdAt,value
2022-10-17T00:04:05.862Z,86.39
2022-10-17T00:09:05.962Z,86.31
2022-10-17T00:14:05.937Z,86.25
2022-10-17T00:19:05.881Z,86.30
2022-10-17T00:24:06.010Z,86.28
2022-10-17T00:29:06.109Z,86.24
2022-10-17T00:34:05.876Z,86.00
2022-10-17T00:39:06.369Z,85.91
2022-10-17T00:44:07.075Z,85.81
2022-10-17T00:49:06.906Z,85.80
2022-10-17T00:54:06.959Z,85.75
2022-10-17T00:59:07.050Z,85.54
2022-10-17T01:04:06.923Z,85.49
2022-10-17T01:09:06.953Z,85.40
2022-10-17T01:14:06.970Z,85.38
2022-10-17T01:19:07.011Z,85.48
2022-10-17T01:24:08.655Z,85.34
2022-10-17T01:29:08.993Z,85.35
2022-10-17T01:34:08.962Z,85.41
2022-10-17T01:39:09.002Z,85.44
2022-10-17T01:44:08.929Z,85.47
2022-10-17T01:49:08.955Z,85.45
2022-10-17T01:54:08.937Z,85.38
2022-10-17T01:59:09.077Z,85.40
2022-10-17T02:04:08.981Z,85.41
2022-10-17T02:09:09.486Z,85.52
2022-10-17T02:19:11.020Z,85.61
2022-10-17T02:24:10.942Z,85.57
2022-10-17T02:29:11.218Z,85.60
2022-10-17T02:34:11.122Z,85.60
2022-10-17T02:39:11.171Z,85.52
2022-10-17T02:44:10.982Z,85.50
2022-10-17T02:49:11.031Z,85.45
2022-10-17T02:54:12.467Z,85.53
2022-10-17T02:59:12.115Z,85.41
2022-10-17T03:04:12.156Z,85.41
2022-10-17T03:09:12.200Z,85.38
2022-10-17T03:14:12.185Z,85.50
2022-10-17T03:19:12.168Z,85.58
2022-10-17T03:24:12.710Z,85.59
2022-10-17T03:29:13.317Z,85.43
2022-10-17T03:34:13.103Z,85.44
2022-10-17T03:39:13.065Z,85.57
2022-10-17T03:44:13.566Z,85.91
2022-10-17T03:49:13.595Z,86.01
2022-10-17T03:54:13.431Z,85.80
2022-10-17T03:59:13.232Z,85.71
2022-10-17T04:04:13.299Z,85.79
2022-10-17T04:09:17.965Z,85.74
2022-10-17T04:14:18.186Z,85.64
2022-10-17T04:19:20.025Z,85.47
2022-10-17T04:24:21.997Z,85.32
2022-10-17T04:29:24.055Z,85.30
2022-10-17T04:34:24.685Z,85.36
2022-10-17T04:39:25.718Z,85.50
2022-10-17T04:44:26.256Z,85.57
2022-10-17T04:49:28.047Z,85.52
2022-10-17T04:54:36.082Z,85.54
2022-10-17T04:59:41.016Z,85.46
2022-10-17T05:04:41.313Z,85.47
2022-10-17T05:09:41.064Z,85.52
2022-10-17T05:14:41.557Z,85.40
2022-10-17T05:19:41.676Z,85.36
2022-10-17T05:24:42.818Z,85.38
2022-10-17T05:29:50.933Z,85.29
2022-10-17T05:34:51.787Z,85.10
2022-10-17T05:39:52.184Z,85.12
2022-10-17T05:44:52.987Z,85.06
2022-10-17T05:49:55.039Z,84.87
2022-10-17T05:54:55.774Z,84.87
2022-10-17T05:59:56.521Z,84.74
2022-10-17T06:04:57.445Z,84.52
2022-10-17T06:09:58.868Z,84.53
2022-10-17T06:15:00.319Z,84.32
2022-10-17T06:20:00.149Z,84.00
2022-10-17T06:25:00.382Z,83.89
2022-10-17T06:30:02.056Z,83.67
2022-10-17T06:35:03.601Z,83.40
2022-10-17T06:40:05.175Z,83.29
2022-10-17T06:45:07.113Z,83.03
2022-10-17T06:50:09.120Z,82.56
2022-10-17T06:55:15.804Z,82.48
2022-10-17T07:00:18.200Z,82.15
2022-10-17T07:05:19.072Z,81.77
2022-10-17T07:10:19.534Z,81.32
2022-10-17T07:15:19.284Z,80.79
2022-10-17T07:20:19.819Z,80.29
2022-10-17T07:25:22.193Z,79.60
2022-10-17T07:30:33.191Z,78.81
2022-10-17T07:35:33.351Z,78.15
2022-10-17T07:40:33.722Z,77.80
2022-10-17T07:45:33.361Z,76.88
2022-10-17T07:50:33.157Z,76.36
2022-10-17T07:55:33.193Z,76.15
2022-10-17T08:00:33.273Z,75.08
2022-10-17T08:05:33.307Z,74.66
2022-10-17T08:10:33.193Z,74.29
2022-10-17T08:15:33.552Z,73.91
2022-10-17T08:20:33.368Z,73.65
2022-10-17T08:25:33.222Z,72.69
2022-10-17T08:30:33.288Z,72.63
2022-10-17T08:35:33.277Z,69.01
2022-10-17T08:40:33.627Z,66.04
2022-10-17T08:45:33.233Z,64.71
2022-10-17T08:50:33.449Z,66.10
2022-10-17T08:55:33.314Z,61.56
2022-10-17T09:00:33.259Z,64.32
2022-10-17T09:05:33.214Z,59.10
2022-10-17T09:10:33.326Z,57.03
2022-10-17T09:15:33.292Z,55.64
2022-10-17T09:20:33.247Z,54.73
2022-10-17T09:25:33.246Z,54.01
2022-10-17T09:30:44.702Z,54.14
2022-10-17T09:35:35.360Z,55.25
2022-10-17T09:40:35.265Z,57.32
2022-10-17T09:45:37.188Z,57.81
2022-10-17T09:50:37.292Z,58.68
2022-10-17T09:55:40.434Z,59.69
2022-10-17T10:00:40.343Z,60.54
2022-10-17T10:05:40.409Z,61.17
2022-10-17T10:10:42.510Z,62.04
2022-10-17T10:15:42.258Z,62.72
2022-10-17T10:20:44.225Z,63.19
2022-10-17T10:25:44.396Z,63.45
2022-10-17T10:30:44.617Z,63.29
2022-10-17T10:35:44.411Z,63.13
2022-10-17T10:40:44.412Z,63.31
2022-10-17T10:45:48.680Z,63.62
2022-10-17T10:50:46.418Z,63.48
2022-10-17T10:55:46.349Z,63.73
2022-10-17T11:00:46.432Z,63.99
2022-10-17T11:05:46.449Z,64.07
2022-10-17T11:10:46.355Z,64.25
2022-10-17T11:15:46.388Z,64.24
2022-10-17T11:20:46.424Z,64.83
2022-10-17T11:25:47.938Z,65.01
2022-10-17T11:30:47.463Z,65.11
2022-10-17T11:35:47.741Z,65.59
2022-10-17T11:40:47.390Z,65.87
2022-10-17T11:45:47.424Z,65.95
2022-10-17T11:55:49.452Z,65.87
2022-10-17T12:00:49.798Z,65.91
2022-10-17T12:05:49.462Z,66.04
2022-10-17T12:10:49.493Z,65.96
2022-10-17T12:15:49.471Z,65.63
2022-10-17T12:20:49.378Z,65.88
2022-10-17T12:25:49.460Z,66.01
2022-10-17T12:30:49.465Z,66.14
2022-10-17T12:35:50.135Z,66.01
2022-10-17T12:40:50.464Z,66.06
2022-10-17T12:45:50.984Z,66.70
2022-10-17T12:50:50.428Z,66.79
2022-10-17T12:55:51.485Z,66.86
2022-10-17T13:01:11.713Z,67.38
2022-10-17T13:05:53.466Z,67.81
2022-10-17T13:10:53.464Z,68.14
2022-10-17T13:15:53.492Z,68.47
2022-10-17T13:20:53.479Z,69.92
2022-10-17T13:25:53.446Z,70.33
2022-10-17T13:30:55.828Z,70.93
2022-10-17T13:36:00.452Z,71.26
2022-10-17T13:41:10.839Z,71.74
2022-10-17T13:46:19.253Z,72.20
2022-10-17T13:51:07.887Z,72.50
2022-10-17T13:56:27.351Z,72.64
2022-10-17T14:01:09.499Z,72.42
2022-10-17T14:06:09.717Z,72.40
2022-10-17T14:11:11.774Z,72.60
2022-10-17T14:16:11.533Z,72.58
2022-10-17T14:26:13.684Z,72.27
2022-10-17T14:31:13.999Z,72.36
2022-10-17T14:36:13.582Z,72.50
2022-10-17T14:41:41.416Z,72.58
2022-10-17T14:46:15.815Z,72.83
2022-10-17T14:51:15.512Z,72.84
2022-10-17T14:56:15.721Z,73.09
2022-10-17T15:01:15.545Z,73.19
2022-10-17T15:06:15.686Z,73.20
2022-10-17T15:11:15.599Z,73.27
2022-10-17T15:16:15.581Z,73.45
2022-10-17T15:21:26.444Z,73.68
2022-10-17T15:26:17.555Z,73.82
2022-10-17T15:31:17.637Z,74.06
2022-10-17T15:36:17.720Z,74.14
2022-10-17T15:41:17.566Z,74.24
2022-10-17T15:46:17.551Z,74.40
2022-10-17T15:51:17.652Z,74.67
2022-10-17T15:56:17.572Z,74.88
2022-10-17T16:01:17.690Z,75.11
2022-10-17T16:06:17.961Z,75.23
2022-10-17T16:11:17.792Z,75.49
2022-10-17T16:16:17.610Z,75.90
2022-10-17T16:21:17.772Z,76.47
2022-10-17T16:26:17.573Z,76.92
2022-10-17T16:31:17.613Z,77.24
2022-10-17T16:36:17.627Z,77.60
2022-10-17T16:41:17.669Z,78.74
2022-10-17T16:46:17.723Z,78.99
2022-10-17T16:51:18.380Z,79.49
2022-10-17T16:56:18.745Z,79.79
2022-10-17T17:01:18.787Z,80.42
2022-10-17T17:06:20.130Z,81.29
2022-10-17T17:11:19.705Z,81.78
2022-10-17T17:16:20.926Z,81.93
2022-10-17T17:21:20.635Z,81.85
2022-10-17T17:26:20.648Z,81.86
2022-10-17T17:31:21.710Z,81.90
2022-10-17T17:36:21.790Z,81.99
2022-10-17T17:41:21.787Z,82.04
2022-10-17T17:46:21.627Z,82.23
2022-10-17T17:51:25.407Z,82.48
2022-10-17T17:56:23.636Z,82.57
2022-10-17T18:01:23.791Z,82.70
2022-10-17T18:06:23.738Z,82.77
2022-10-17T18:11:23.859Z,82.93
2022-10-17T18:16:23.672Z,82.97
2022-10-17T18:21:23.764Z,83.04
2022-10-17T18:26:23.767Z,83.15
2022-10-17T18:31:25.957Z,83.22
2022-10-17T18:36:25.926Z,83.29
2022-10-17T18:41:25.797Z,83.36
2022-10-17T18:46:25.694Z,83.56
2022-10-17T18:51:25.683Z,83.63
2022-10-17T18:56:25.721Z,83.68
2022-10-17T19:01:25.781Z,83.81
2022-10-17T19:06:25.775Z,83.93
2022-10-17T19:11:25.735Z,84.01
2022-10-17T19:16:25.743Z,84.09
2022-10-17T19:21:25.684Z,84.12
2022-10-17T19:26:25.720Z,84.17
2022-10-17T19:31:27.278Z,84.21
2022-10-17T19:36:30.720Z,84.31
2022-10-17T19:41:29.799Z,84.42
2022-10-17T19:46:29.885Z,84.55
2022-10-17T19:51:29.728Z,84.59
2022-10-17T19:56:29.772Z,84.66
2022-10-17T20:01:29.799Z,84.70
2022-10-17T20:06:29.744Z,84.78
2022-10-17T20:11:29.859Z,84.82
2022-10-17T20:16:29.780Z,84.94
2022-10-17T20:21:31.096Z,84.93
2022-10-17T20:26:38.085Z,85.04
2022-10-17T20:31:35.844Z,85.15
2022-10-17T20:36:36.821Z,85.18
2022-10-17T20:41:36.850Z,85.24
2022-10-17T20:46:38.448Z,85.34
2022-10-17T20:51:38.833Z,85.45
2022-10-17T20:56:39.519Z,85.54
2022-10-17T21:01:39.934Z,85.63
2022-10-17T21:06:39.888Z,85.64
2022-10-17T21:11:40.123Z,85.73
2022-10-17T21:16:40.832Z,86.04
2022-10-17T21:21:41.117Z,86.14
2022-10-17T21:26:40.809Z,86.26
2022-10-17T21:31:40.858Z,86.24
2022-10-17T21:36:40.888Z,86.32
2022-10-17T21:41:40.992Z,86.34
2022-10-17T21:46:40.863Z,86.41
2022-10-17T21:51:40.910Z,86.43
2022-10-17T21:56:40.826Z,86.42
2022-10-17T22:01:40.927Z,86.40
2022-10-17T22:06:41.227Z,86.43
2022-10-17T22:11:41.010Z,86.45
2022-10-17T22:16:40.868Z,86.54
2022-10-17T22:21:40.922Z,86.58
2022-10-17T22:26:40.943Z,86.61
2022-10-17T22:31:40.977Z,86.62
2022-10-17T22:36:40.913Z,86.64
2022-10-17T22:41:40.994Z,86.64
2022-10-17T22:46:40.877Z,86.67
2022-10-17T22:51:40.866Z,86.63
2022-10-17T22:56:40.864Z,86.70
2022-10-17T23:01:41.051Z,86.83
2022-10-17T23:06:40.874Z,87.11
2022-10-17T23:11:40.957Z,87.23
2022-10-17T23:16:40.888Z,87.27
2022-10-17T23:21:43.989Z,87.43
2022-10-17T23:26:43.934Z,87.61
2022-10-17T23:31:43.880Z,87.79
2022-10-17T23:36:44.031Z,87.91
2022-10-17T23:41:43.972Z,88.06
2022-10-17T23:46:43.922Z,88.01
2022-10-17T23:51:43.921Z,87.99
2022-10-17T23:56:43.903Z,87.88
